createdAt,value
2018-10-05T00:00:21.981Z,20.07
2018-10-05T00:01:22.273Z,20.1
2018-10-05T00:02:22.029Z,20.09
2018-10-05T00:03:22.065Z,20.09
2018-10-05T00:04:21.825Z,20.09
2018-10-05T00:05:22.373Z,20.04
2018-10-05T00:06:21.875Z,20.09
2018-10-05T00:07:22.420Z,20.11
2018-10-05T00:08:22.176Z,20.13
2018-10-05T00:09:22.228Z,20.07
2018-10-05T00:10:22.479Z,20.04
2018-10-05T00:11:22.260Z,20.1
2018-10-05T00:12:22.568Z,20.06
2018-10-05T00:13:22.053Z,20.07
2018-10-05T00:14:22.607Z,20.06
2018-10-05T00:15:22.108Z,20.09
2018-10-05T00:16:22.122Z,20.09
2018-10-05T00:17:22.420Z,20.09
2018-10-05T00:18:22.435Z,20.1
2018-10-05T00:19:22.735Z,20.13
2018-10-05T00:20:22.525Z,20.14
2018-10-05T00:21:22.516Z,20.1
2018-10-05T00:22:22.543Z,20.11
2018-10-05T00:23:22.814Z,20.1
2018-10-05T00:24:22.859Z,20.11
2018-10-05T00:25:22.607Z,20.06
2018-10-05T00:26:22.887Z,20.11
2018-10-05T00:27:23.927Z,20.07
2018-10-05T00:28:22.956Z,20.11
2018-10-05T00:29:22.982Z,20.1
2018-10-05T00:30:22.748Z,20.16
2018-10-05T00:31:22.772Z,20.06
2018-10-05T00:32:22.932Z,20.09
2018-10-05T00:33:22.824Z,20.07
2018-10-05T00:34:23.098Z,20.03
2018-10-05T00:35:23.150Z,20.11
2018-10-05T00:36:23.143Z,20.09
2018-10-05T00:37:22.914Z,20.04
2018-10-05T00:38:22.684Z,20.09
2018-10-05T00:39:22.985Z,20.13
2018-10-05T00:40:22.996Z,20.06
2018-10-05T00:41:23.345Z,20.04
2018-10-05T00:42:23.316Z,20.1
2018-10-05T00:43:23.080Z,20.14
2018-10-05T00:44:22.840Z,20.1
2018-10-05T00:45:23.373Z,20.09
2018-10-05T00:46:23.148Z,20.11
2018-10-05T00:47:23.177Z,20.04
2018-10-05T00:48:23.472Z,20.09
2018-10-05T00:49:23.483Z,20.07
2018-10-05T00:50:22.994Z,20.07
2018-10-05T00:51:23.274Z,20.1
2018-10-05T00:52:23.313Z,20.1
2018-10-05T00:53:23.149Z,20.11
2018-10-05T00:54:23.619Z,20.07
2018-10-05T00:55:23.373Z,20.1
2018-10-05T00:56:23.679Z,20.13
2018-10-05T00:57:23.454Z,20.14
2018-10-05T00:58:23.467Z,20.21
2018-10-05T00:59:23.479Z,20.14
2018-10-05T01:00:23.521Z,20.11
2018-10-05T01:01:23.298Z,20.09
2018-10-05T01:02:23.563Z,20.1
2018-10-05T01:03:23.855Z,20.09
2018-10-05T01:04:23.616Z,20.09
2018-10-05T01:05:23.660Z,20.16
2018-10-05T01:06:23.652Z,20.14
2018-10-05T01:07:23.695Z,20.09
2018-10-05T01:08:23.707Z,20.1
2018-10-05T01:09:23.733Z,20.13
2018-10-05T01:10:24.032Z,20.09
2018-10-05T01:11:23.861Z,20.06
2018-10-05T01:12:24.283Z,20.03
2018-10-05T01:13:24.104Z,20.09
2018-10-05T01:14:23.864Z,20.09
2018-10-05T01:15:24.157Z,20.1
2018-10-05T01:16:23.663Z,20.1
2018-10-05T01:17:24.211Z,20.11
2018-10-05T01:18:23.965Z,20.1
2018-10-05T01:19:24.258Z,20.16
2018-10-05T01:20:23.758Z,20.09
2018-10-05T01:21:24.045Z,20.11
2018-10-05T01:22:24.081Z,20.09
2018-10-05T01:23:24.347Z,20.1
2018-10-05T01:24:24.371Z,20.04
2018-10-05T01:25:24.393Z,20.06
2018-10-05T01:26:24.171Z,20.1
2018-10-05T01:27:24.319Z,20.13
2018-10-05T01:28:24.219Z,20.1
2018-10-05T01:29:24.243Z,20.13
2018-10-05T01:30:24.280Z,20.16
2018-10-05T01:31:24.313Z,20.04
2018-10-05T01:32:24.323Z,20.07
2018-10-05T01:33:24.355Z,20.1
2018-10-05T01:34:24.635Z,20.09
2018-10-05T01:35:24.655Z,20.09
2018-10-05T01:36:24.439Z,20.09
2018-10-05T01:37:24.466Z,20.1
2018-10-05T01:38:24.487Z,20.09
2018-10-05T01:39:24.249Z,20.06
2018-10-05T01:40:24.520Z,20.1
2018-10-05T01:41:24.812Z,20.11
2018-10-05T01:42:24.609Z,20.11
2018-10-05T01:43:24.884Z,20.09
2018-10-05T01:44:24.900Z,20.11
2018-10-05T01:45:25.524Z,20.1
2018-10-05T01:46:24.690Z,20.16
2018-10-05T01:47:24.449Z,20.13
2018-10-05T01:48:25.034Z,20.18
2018-10-05T01:49:24.513Z,20.06
2018-10-05T01:50:24.783Z,20.1
2018-10-05T01:51:24.840Z,20.11
2018-10-05T01:52:24.840Z,20.11
2018-10-05T01:53:25.129Z,20.09
2018-10-05T01:54:25.140Z,20.1
2018-10-05T01:55:24.669Z,20.09
2018-10-05T01:56:24.693Z,20.13
2018-10-05T01:57:25.236Z,20.09
2018-10-05T01:58:25.245Z,20.1
2018-10-05T01:59:25.015Z,20.07
2018-10-05T02:00:25.041Z,20.06
2018-10-05T02:01:24.809Z,20.14
2018-10-05T02:02:25.370Z,20.02
2018-10-05T02:03:25.113Z,20.06
2018-10-05T02:04:25.168Z,20.1
2018-10-05T02:05:25.172Z,20.09
2018-10-05T02:06:25.553Z,20.07
2018-10-05T02:07:25.481Z,20.09
2018-10-05T02:08:24.988Z,20.04
2018-10-05T02:09:25.272Z,20.1
2018-10-05T02:10:25.304Z,20.11
2018-10-05T02:11:25.070Z,20.06
2018-10-05T02:12:25.611Z,20.04
2018-10-05T02:13:40.284Z,20.1
2018-10-05T02:14:25.667Z,20.07
2018-10-05T02:15:25.694Z,20.11
2018-10-05T02:16:25.205Z,20.11
2018-10-05T02:17:25.733Z,20.1
2018-10-05T02:18:25.512Z,20.06
2018-10-05T02:19:25.524Z,20.18
2018-10-05T02:20:25.838Z,20.1
2018-10-05T02:21:25.833Z,20.14
2018-10-05T02:22:25.612Z,20.11
2018-10-05T02:23:25.641Z,20.04
2018-10-05T02:24:25.412Z,20.06
2018-10-05T02:25:25.957Z,20.1
2018-10-05T02:26:25.703Z,20.06
2018-10-05T02:27:25.815Z,20.1
2018-10-05T02:29:25.557Z,20.07
2018-10-05T02:30:26.092Z,20.06
2018-10-05T02:31:26.127Z,20.1
2018-10-05T02:32:25.866Z,20.13
2018-10-05T02:33:26.145Z,20.14
2018-10-05T02:34:25.918Z,20.13
2018-10-05T02:35:26.196Z,20.14
2018-10-05T02:36:25.970Z,20.09
2018-10-05T02:38:26.027Z,20.1
2018-10-05T02:39:25.808Z,20.06
2018-10-05T02:40:26.353Z,20.13
2018-10-05T02:41:26.098Z,20.09
2018-10-05T02:42:26.135Z,20.07
2018-10-05T02:43:25.891Z,20.11
2018-10-05T02:44:26.446Z,20.09
2018-10-05T02:45:26.200Z,20.11
2018-10-05T02:46:26.479Z,20.09
2018-10-05T02:47:26.253Z,20.09
2018-10-05T02:48:26.027Z,20.1
2018-10-05T02:49:26.311Z,20.11
2018-10-05T02:50:26.331Z,20.1
2018-10-05T02:51:26.610Z,20.1
2018-10-05T02:52:26.379Z,20.18
2018-10-05T02:53:26.535Z,20.09
2018-10-05T02:54:26.700Z,20.11
2018-10-05T02:55:26.464Z,20.11
2018-10-05T02:56:26.769Z,20.13
2018-10-05T02:57:26.242Z,20.14
2018-10-05T02:58:26.795Z,20.11
2018-10-05T02:59:26.290Z,20.16
2018-10-05T03:00:26.849Z,20.13
2018-10-05T03:01:26.862Z,20.11
2018-10-05T03:02:26.645Z,20.1
2018-10-05T03:03:26.665Z,20.16
2018-10-05T03:04:26.436Z,20.14
2018-10-05T03:05:26.703Z,20.09
2018-10-05T03:06:26.743Z,20.18
2018-10-05T03:07:26.766Z,20.11
2018-10-05T03:08:27.040Z,20.11
2018-10-05T03:09:26.837Z,20.1
2018-10-05T03:10:26.838Z,20.13
2018-10-05T03:11:27.128Z,20.11
2018-10-05T03:12:27.151Z,20.1
2018-10-05T03:13:26.931Z,20.1
2018-10-05T03:14:26.937Z,20.09
2018-10-05T03:15:26.968Z,20.06
2018-10-05T03:16:26.999Z,20.09
2018-10-05T03:17:26.773Z,20.14
2018-10-05T03:18:27.317Z,20.07
2018-10-05T03:19:27.077Z,20.1
2018-10-05T03:20:27.361Z,20.11
2018-10-05T03:21:27.127Z,20.1
2018-10-05T03:22:26.898Z,20.1
2018-10-05T03:23:56.731Z,20.06
2018-10-05T03:24:27.214Z,20.13
2018-10-05T03:25:27.231Z,20.1
2018-10-05T03:26:27.518Z,20.04
2018-10-05T03:27:27.542Z,20.13
2018-10-05T03:28:27.557Z,20.11
2018-10-05T03:29:27.352Z,20.04
2018-10-05T03:30:27.104Z,20.11
2018-10-05T03:31:27.379Z,20.1
2018-10-05T03:32:27.690Z,20.11
2018-10-05T03:33:27.703Z,20.1
2018-10-05T03:34:27.709Z,20.1
2018-10-05T03:35:27.473Z,20.09
2018-10-05T03:36:27.549Z,20.09
2018-10-05T03:37:27.529Z,20.1
2018-10-05T03:38:27.574Z,20.07
2018-10-05T03:39:27.919Z,20.18
2018-10-05T03:40:27.610Z,20.09
2018-10-05T03:41:27.654Z,20.06
2018-10-05T03:42:27.680Z,20.13
2018-10-05T03:43:27.684Z,20.11
2018-10-05T03:44:27.704Z,20.09
2018-10-05T03:45:27.998Z,20.06
2018-10-05T03:46:27.784Z,20.06
2018-10-05T03:47:28.051Z,20.06
2018-10-05T03:48:28.080Z,20.07
2018-10-05T03:49:27.844Z,20.13
2018-10-05T03:50:28.133Z,20.13
2018-10-05T03:51:27.887Z,20.04
2018-10-05T03:52:27.912Z,20.03
2018-10-05T03:53:27.951Z,20.11
2018-10-05T03:54:28.220Z,20.14
2018-10-05T03:55:28.244Z,20.07
2018-10-05T03:56:28.029Z,20.11
2018-10-05T03:57:28.310Z,20.07
2018-10-05T03:58:28.331Z,20.13
2018-10-05T03:59:27.848Z,20.16
2018-10-05T04:00:27.874Z,20.07
2018-10-05T04:01:27.889Z,20.06
2018-10-05T04:02:28.172Z,20.07
2018-10-05T04:03:28.459Z,20.04
2018-10-05T04:04:27.968Z,20.11
2018-10-05T04:05:28.505Z,20.07
2018-10-05T04:06:28.543Z,20.04
2018-10-05T04:07:28.308Z,20.13
2018-10-05T04:08:28.595Z,20.06
2018-10-05T04:09:28.361Z,20.07
2018-10-05T04:10:28.380Z,20.09
2018-10-05T04:11:28.401Z,20.11
2018-10-05T04:12:28.435Z,20.1
2018-10-05T04:13:28.197Z,20.07
2018-10-05T04:14:28.467Z,20.1
2018-10-05T04:15:28.756Z,20.07
2018-10-05T04:16:28.274Z,20.1
2018-10-05T04:17:28.836Z,20.1
2018-10-05T04:18:28.837Z,20.07
2018-10-05T04:19:28.875Z,20.04
2018-10-05T04:20:28.635Z,20.13
2018-10-05T04:21:28.916Z,20.03
2018-10-05T04:22:28.684Z,20.1
2018-10-05T04:23:28.705Z,20.07
2018-10-05T04:24:28.994Z,20.13
2018-10-05T04:25:28.761Z,20.09
2018-10-05T04:26:28.785Z,20.1
2018-10-05T04:27:28.986Z,20.09
2018-10-05T04:28:28.840Z,20.09
2018-10-05T04:29:29.116Z,20.14
2018-10-05T04:30:28.888Z,20.07
2018-10-05T04:31:28.912Z,20.06
2018-10-05T04:32:28.928Z,20.09
2018-10-05T04:33:28.716Z,20.13
2018-10-05T04:34:28.990Z,20.1
2018-10-05T04:35:29.442Z,20.1
2018-10-05T04:36:29.297Z,20.09
2018-10-05T04:37:28.808Z,20.1
2018-10-05T04:38:28.842Z,20.06
2018-10-05T04:39:29.113Z,20.09
2018-10-05T04:40:28.880Z,20.07
2018-10-05T04:41:29.630Z,20.07
2018-10-05T04:42:29.469Z,20.09
2018-10-05T04:43:29.224Z,20.1
2018-10-05T04:44:28.980Z,20.19
2018-10-05T04:45:29.012Z,20.07
2018-10-05T04:46:29.552Z,20.11
2018-10-05T04:47:29.589Z,20.1
2018-10-05T04:48:29.345Z,20.06
2018-10-05T04:50:29.412Z,20.09
2018-10-05T04:51:29.685Z,20.07
2018-10-05T04:52:29.456Z,20.09
2018-10-05T04:53:29.496Z,20.09
2018-10-05T04:54:29.247Z,20.07
2018-10-05T04:55:29.810Z,20.09
2018-10-05T04:56:29.964Z,20.14
2018-10-05T04:57:29.571Z,20.13
2018-10-05T04:58:29.876Z,20.11
2018-10-05T04:59:29.894Z,20.1
2018-10-05T05:00:29.671Z,20.14
2018-10-05T05:01:29.669Z,20.1
2018-10-05T05:02:29.716Z,20.07
2018-10-05T05:03:29.861Z,20.06
2018-10-05T05:04:29.753Z,20.06
2018-10-05T05:05:29.780Z,20.11
2018-10-05T05:06:30.070Z,20.11
2018-10-05T05:07:30.103Z,20.04
2018-10-05T05:08:29.853Z,20.1
2018-10-05T05:09:29.626Z,20.16
2018-10-05T05:10:29.649Z,20.09
2018-10-05T05:11:30.182Z,20.16
2018-10-05T05:12:29.706Z,20.06
2018-10-05T05:13:29.987Z,20.14
2018-10-05T05:14:30.157Z,20.16
2018-10-05T05:15:30.044Z,20.1
2018-10-05T05:16:30.315Z,20.1
2018-10-05T05:17:30.089Z,20.11
2018-10-05T05:18:30.109Z,20.07
2018-10-05T05:19:30.238Z,20.07
2018-10-05T05:20:30.175Z,20.13
2018-10-05T05:21:30.189Z,20.1
2018-10-05T05:22:30.479Z,20.04
2018-10-05T05:23:29.977Z,20.07
2018-10-05T05:24:30.267Z,20
2018-10-05T05:25:30.289Z,20.07
2018-10-05T05:26:30.578Z,20.06
2018-10-05T05:27:30.612Z,20.02
2018-10-05T05:28:30.437Z,20.07
2018-10-05T05:29:30.382Z,20.03
2018-10-05T05:30:30.420Z,20
2018-10-05T05:31:30.442Z,20.03
2018-10-05T05:32:30.220Z,20.06
2018-10-05T05:33:30.916Z,20.02
2018-10-05T05:34:30.518Z,19.99
2018-10-05T05:35:30.822Z,20.03
2018-10-05T05:36:30.577Z,20
2018-10-05T05:37:30.600Z,20.09
2018-10-05T05:38:30.892Z,20.02
2018-10-05T05:39:30.652Z,20.06
2018-10-05T05:40:30.976Z,20.04
2018-10-05T05:41:30.967Z,19.99
2018-10-05T05:42:30.727Z,19.99
2018-10-05T05:43:31.020Z,20.02
2018-10-05T05:44:30.778Z,20.02
2018-10-05T05:45:31.059Z,20.03
2018-10-05T05:46:30.576Z,20.07
2018-10-05T05:47:30.853Z,20.02
2018-10-05T05:48:30.895Z,20.06
2018-10-05T05:49:31.184Z,19.99
2018-10-05T05:50:30.942Z,20.06
2018-10-05T05:51:30.969Z,20.07
2018-10-05T05:52:31.263Z,20.04
2018-10-05T05:53:30.751Z,20.1
2018-10-05T05:54:31.315Z,20.03
2018-10-05T05:55:30.813Z,20
2018-10-05T05:56:30.828Z,20.07
2018-10-05T05:57:31.364Z,20.04
2018-10-05T05:58:31.142Z,19.96
2018-10-05T05:59:31.164Z,20.02
2018-10-05T06:00:31.436Z,19.96
2018-10-05T06:01:31.484Z,19.96
2018-10-05T06:02:31.232Z,20.07
2018-10-05T06:03:31.257Z,19.96
2018-10-05T06:04:31.567Z,20.02
2018-10-05T06:05:31.322Z,20.03
2018-10-05T06:06:31.084Z,19.95
2018-10-05T06:07:31.367Z,19.89
2018-10-05T06:08:31.140Z,20.04
2018-10-05T06:09:31.680Z,19.96
2018-10-05T06:10:31.447Z,20
2018-10-05T06:11:31.478Z,20
2018-10-05T06:12:31.779Z,19.91
2018-10-05T06:13:31.775Z,20
2018-10-05T06:14:31.561Z,19.96
2018-10-05T06:15:31.601Z,19.95
2018-10-05T06:16:31.790Z,20.06
2018-10-05T06:17:31.889Z,20.02
2018-10-05T06:18:31.652Z,19.94
2018-10-05T06:19:31.669Z,20.04
2018-10-05T06:20:31.696Z,20
2018-10-05T06:21:31.573Z,19.99
2018-10-05T06:22:32.239Z,19.96
2018-10-05T06:23:31.779Z,19.85
2018-10-05T06:24:31.804Z,19.94
2018-10-05T06:25:32.109Z,19.85
2018-10-05T06:26:31.852Z,19.92
2018-10-05T06:27:31.679Z,19.81
2018-10-05T06:28:31.649Z,19.85
2018-10-05T06:29:32.192Z,19.85
2018-10-05T06:30:32.030Z,19.69
2018-10-05T06:31:31.733Z,19.73
2018-10-05T06:32:31.756Z,19.71
2018-10-05T06:33:32.293Z,19.7
2018-10-05T06:34:32.071Z,19.7
2018-10-05T06:35:32.083Z,19.73
2018-10-05T06:36:32.100Z,19.73
2018-10-05T06:37:32.126Z,19.69
2018-10-05T06:38:31.910Z,19.76
2018-10-05T06:39:32.451Z,19.64
2018-10-05T06:40:32.303Z,19.66
2018-10-05T06:41:32.254Z,19.71
2018-10-05T06:42:32.781Z,19.63
2018-10-05T06:43:32.548Z,19.64
2018-10-05T06:44:32.596Z,19.69
2018-10-05T06:45:32.611Z,19.64
2018-10-05T06:46:32.365Z,19.67
2018-10-05T06:47:32.655Z,19.59
2018-10-05T06:48:32.419Z,19.55
2018-10-05T06:49:32.186Z,19.52
2018-10-05T06:50:32.732Z,19.66
2018-10-05T06:51:32.505Z,19.64
2018-10-05T06:52:32.786Z,19.67
2018-10-05T06:53:32.551Z,19.63
2018-10-05T06:54:32.565Z,19.59
2018-10-05T06:55:32.852Z,19.56
2018-10-05T06:56:32.617Z,19.56
2018-10-05T06:57:32.903Z,19.63
2018-10-05T06:58:32.991Z,19.58
2018-10-05T06:59:32.701Z,19.54
2018-10-05T07:00:32.739Z,19.59
2018-10-05T07:01:32.995Z,19.58
2018-10-05T07:02:33.045Z,19.52
2018-10-05T07:03:32.807Z,19.52
2018-10-05T07:04:32.817Z,19.58
2018-10-05T07:05:33.116Z,19.58
2018-10-05T07:06:32.885Z,19.51
2018-10-05T07:07:32.671Z,19.54
2018-10-05T07:08:32.933Z,19.56
2018-10-05T07:09:32.967Z,19.55
2018-10-05T07:10:32.975Z,19.59
2018-10-05T07:11:32.847Z,19.52
2018-10-05T07:12:33.045Z,19.55
2018-10-05T07:13:32.809Z,19.48
2018-10-05T07:14:33.354Z,19.49
2018-10-05T07:15:32.845Z,19.62
2018-10-05T07:16:33.131Z,19.54
2018-10-05T07:17:33.173Z,19.51
2018-10-05T07:18:32.921Z,19.55
2018-10-05T07:19:33.460Z,19.52
2018-10-05T07:20:33.235Z,19.55
2018-10-05T07:21:33.821Z,19.64
2018-10-05T07:22:33.816Z,19.63
2018-10-05T07:23:33.583Z,19.58
2018-10-05T07:24:33.589Z,19.64
2018-10-05T07:25:33.615Z,19.64
2018-10-05T07:26:33.128Z,19.66
2018-10-05T07:27:33.423Z,19.73
2018-10-05T07:28:33.914Z,19.74
2018-10-05T07:29:33.729Z,19.74
2018-10-05T07:30:33.491Z,19.71
2018-10-05T07:31:33.269Z,19.71
2018-10-05T07:32:33.542Z,19.71
2018-10-05T07:33:33.317Z,19.7
2018-10-05T07:34:33.627Z,19.74
2018-10-05T07:35:33.872Z,19.67
2018-10-05T07:36:33.942Z,19.67
2018-10-05T07:37:33.415Z,19.69
2018-10-05T07:38:33.957Z,19.86
2018-10-05T07:39:33.735Z,19.89
2018-10-05T07:40:33.757Z,19.88
2018-10-05T07:41:34.046Z,19.81
2018-10-05T07:42:34.058Z,19.89
2018-10-05T07:43:33.568Z,19.76
2018-10-05T07:44:33.855Z,19.76
2018-10-05T07:45:33.880Z,19.84
